createdAt,value
2016-05-19T00:00:18.698Z,0
2016-05-19T00:01:18.840Z,0
2016-05-19T00:02:18.671Z,0
2016-05-19T00:03:18.549Z,0
2016-05-19T00:04:18.317Z,0
2016-05-19T00:05:18.633Z,0
2016-05-19T00:06:18.619Z,0
2016-05-19T00:07:18.450Z,0
2016-05-19T00:08:18.875Z,0
2016-05-19T00:09:18.581Z,0
2016-05-19T00:10:18.240Z,0
2016-05-19T00:11:18.539Z,0
2016-05-19T00:12:18.527Z,0
2016-05-19T00:13:18.530Z,0
2016-05-19T00:14:18.345Z,0
2016-05-19T00:15:18.488Z,0
2016-05-19T00:16:18.459Z,0
2016-05-19T00:17:18.447Z,0
2016-05-19T00:18:18.449Z,0
2016-05-19T00:19:18.421Z,0
2016-05-19T00:20:18.469Z,0
2016-05-19T00:21:18.394Z,0
2016-05-19T00:22:18.225Z,0
2016-05-19T00:23:18.384Z,0
2016-05-19T00:24:18.372Z,0
2016-05-19T00:25:18.187Z,0
2016-05-19T00:26:18.329Z,0
2016-05-19T00:27:18.160Z,0
2016-05-19T00:28:18.304Z,0
2016-05-19T00:29:18.119Z,0
2016-05-19T00:30:18.278Z,0
2016-05-19T00:31:18.109Z,0
2016-05-19T00:32:18.095Z,0
2016-05-19T00:33:18.223Z,0
2016-05-19T00:34:18.211Z,0
2016-05-19T00:35:18.057Z,0
2016-05-19T00:36:18.185Z,0
2016-05-19T00:37:18.013Z,0
2016-05-19T00:38:18.550Z,0
2016-05-19T00:39:18.162Z,0
2016-05-19T00:40:18.133Z,0
2016-05-19T00:41:17.805Z,0
2016-05-19T00:42:18.105Z,0
2016-05-19T00:43:17.951Z,0
2016-05-19T00:44:17.922Z,0
2016-05-19T00:45:18.066Z,0
2016-05-19T00:46:18.053Z,0
2016-05-19T00:47:17.883Z,0
2016-05-19T00:48:18.027Z,0
2016-05-19T00:49:17.999Z,0
2016-05-19T00:50:17.985Z,0
2016-05-19T00:51:17.816Z,0
2016-05-19T00:52:17.960Z,0
2016-05-19T00:53:17.805Z,0
2016-05-19T00:54:17.949Z,0
2016-05-19T00:55:17.936Z,0
2016-05-19T00:56:17.752Z,0
2016-05-19T00:57:17.755Z,0
2016-05-19T00:58:17.882Z,0
2016-05-19T00:59:17.868Z,0
2016-05-19T01:00:17.857Z,0
2016-05-19T01:01:17.687Z,0
2016-05-19T01:02:17.829Z,0
2016-05-19T01:03:17.692Z,0
2016-05-19T01:04:17.648Z,0
2016-05-19T01:05:17.807Z,0
2016-05-19T01:06:17.810Z,0
2016-05-19T01:07:17.750Z,0
2016-05-19T01:08:17.753Z,0
2016-05-19T01:09:17.584Z,0
2016-05-19T01:10:17.711Z,0
2016-05-19T01:11:17.417Z,0
2016-05-19T01:12:17.685Z,0
2016-05-19T01:13:17.672Z,0
2016-05-19T01:14:17.675Z,0
2016-05-19T01:15:17.662Z,0
2016-05-19T01:16:17.633Z,0
2016-05-19T01:17:17.605Z,0
2016-05-19T01:18:17.623Z,0
2016-05-19T01:19:17.611Z,0
2016-05-19T01:20:17.582Z,0
2016-05-19T01:21:17.552Z,0
2016-05-19T01:22:17.400Z,0
2016-05-19T01:23:17.544Z,0
2016-05-19T01:24:17.530Z,0
2016-05-19T01:25:17.501Z,0
2016-05-19T01:26:17.488Z,0
2016-05-19T01:27:17.476Z,0
2016-05-19T01:28:17.322Z,0
2016-05-19T01:29:17.293Z,0
2016-05-19T01:30:17.437Z,0
2016-05-19T01:31:17.424Z,0
2016-05-19T01:32:17.114Z,0
2016-05-19T01:33:17.398Z,0
2016-05-19T01:34:17.401Z,0
2016-05-19T01:35:17.403Z,0
2016-05-19T01:36:17.359Z,0
2016-05-19T01:37:17.346Z,0
2016-05-19T01:38:17.395Z,0
2016-05-19T01:39:17.321Z,0
2016-05-19T01:40:17.306Z,0
2016-05-19T01:41:17.278Z,0
2016-05-19T01:42:17.281Z,0
2016-05-19T01:43:17.269Z,0
2016-05-19T01:44:17.100Z,0
2016-05-19T01:45:17.243Z,0
2016-05-19T01:46:17.214Z,0
2016-05-19T01:47:17.061Z,0
2016-05-19T01:48:17.188Z,0
2016-05-19T01:49:17.035Z,0
2016-05-19T01:50:17.194Z,0
2016-05-19T01:51:16.837Z,0
2016-05-19T01:52:16.824Z,0
2016-05-19T01:53:16.842Z,0
2016-05-19T01:54:16.955Z,0
2016-05-19T01:55:17.097Z,0
2016-05-19T01:56:17.085Z,0
2016-05-19T01:57:17.072Z,0
2016-05-19T01:58:17.059Z,0
2016-05-19T01:59:16.577Z,0
2016-05-19T02:00:16.877Z,0
2016-05-19T02:01:16.723Z,0
2016-05-19T02:02:17.007Z,0
2016-05-19T02:03:16.822Z,0
2016-05-19T02:04:16.809Z,0
2016-05-19T02:05:16.954Z,0
2016-05-19T02:06:16.956Z,0
2016-05-19T02:07:16.942Z,0
2016-05-19T02:08:16.836Z,0
2016-05-19T02:09:16.917Z,0
2016-05-19T02:10:16.888Z,0
2016-05-19T02:11:16.876Z,0
2016-05-19T02:12:16.862Z,0
2016-05-19T02:13:16.693Z,0
2016-05-19T02:14:16.524Z,0
2016-05-19T02:15:16.823Z,0
2016-05-19T02:16:16.811Z,0
2016-05-19T02:17:16.641Z,0
2016-05-19T02:18:16.769Z,0
2016-05-19T02:19:16.772Z,0
2016-05-19T02:20:16.758Z,0
2016-05-19T02:21:16.746Z,0
2016-05-19T02:22:16.717Z,0
2016-05-19T02:23:16.751Z,0
2016-05-19T02:24:17.402Z,0
2016-05-19T02:25:16.733Z,0
2016-05-19T02:26:16.533Z,0
2016-05-19T02:27:16.504Z,0
2016-05-19T02:28:16.475Z,0
2016-05-19T02:29:16.635Z,0
2016-05-19T02:30:16.466Z,0
2016-05-19T02:31:16.624Z,0
2016-05-19T02:32:16.440Z,0
2016-05-19T02:33:16.567Z,0
2016-05-19T02:34:16.554Z,0
2016-05-19T02:35:16.557Z,0
2016-05-19T02:36:16.529Z,0
2016-05-19T02:37:16.515Z,0
2016-05-19T02:38:16.924Z,0
2016-05-19T02:39:16.474Z,0
2016-05-19T02:40:16.507Z,0
2016-05-19T02:41:16.179Z,0
2016-05-19T02:42:16.366Z,0
2016-05-19T02:43:16.240Z,0
2016-05-19T02:44:16.584Z,0
2016-05-19T02:45:16.458Z,0
2016-05-19T02:46:16.454Z,0
2016-05-19T02:47:16.613Z,0
2016-05-19T02:48:16.599Z,0
2016-05-19T02:49:16.602Z,0
2016-05-19T02:50:16.620Z,0
2016-05-19T02:51:16.600Z,0
2016-05-19T02:52:16.593Z,0
2016-05-19T02:53:17.352Z,0
2016-05-19T02:54:16.578Z,0
2016-05-19T02:55:16.400Z,0
2016-05-19T02:56:16.421Z,0
2016-05-19T02:57:16.551Z,0
2016-05-19T02:58:16.540Z,0
2016-05-19T02:59:16.513Z,0
2016-05-19T03:00:16.362Z,0
2016-05-19T03:01:16.491Z,0
2016-05-19T03:02:16.494Z,0
2016-05-19T03:03:16.450Z,0
2016-05-19T03:04:16.298Z,0
2016-05-19T03:05:16.285Z,0
2016-05-19T03:06:16.430Z,0
2016-05-19T03:07:16.496Z,0
2016-05-19T03:08:16.826Z,0
2016-05-19T03:09:16.408Z,0
2016-05-19T03:10:16.504Z,0
2016-05-19T03:11:16.366Z,0
2016-05-19T03:12:16.181Z,0
2016-05-19T03:13:16.325Z,0
2016-05-19T03:14:16.297Z,0
2016-05-19T03:15:16.315Z,0
2016-05-19T03:16:16.161Z,0
2016-05-19T03:17:16.149Z,0
2016-05-19T03:18:15.933Z,0
2016-05-19T03:19:16.247Z,0
2016-05-19T03:20:16.219Z,0
2016-05-19T03:21:15.910Z,0
2016-05-19T03:22:16.037Z,0
2016-05-19T03:23:16.977Z,0
2016-05-19T03:24:16.167Z,0
2016-05-19T03:25:15.998Z,0
2016-05-19T03:26:16.126Z,0
2016-05-19T03:27:16.175Z,0
2016-05-19T03:28:16.115Z,0
2016-05-19T03:29:16.102Z,0
2016-05-19T03:30:16.293Z,0
2016-05-19T03:31:15.936Z,0
2016-05-19T03:32:16.032Z,0
2016-05-19T03:33:16.051Z,0
2016-05-19T03:34:16.023Z,0
2016-05-19T03:35:16.026Z,0
2016-05-19T03:36:15.981Z,0
2016-05-19T03:37:15.984Z,0
2016-05-19T03:38:16.314Z,5
2016-05-19T03:39:15.785Z,5
2016-05-19T03:40:15.914Z,5
2016-05-19T03:41:15.916Z,5
2016-05-19T03:42:15.903Z,5
2016-05-19T03:43:15.718Z,5
2016-05-19T03:44:15.861Z,5
2016-05-19T03:45:15.692Z,5
2016-05-19T03:46:15.835Z,5
2016-05-19T03:47:15.666Z,5
2016-05-19T03:48:15.810Z,5
2016-05-19T03:49:15.813Z,5
2016-05-19T03:50:15.784Z,5
2016-05-19T03:51:15.615Z,10
2016-05-19T03:52:15.586Z,10
2016-05-19T03:53:16.824Z,10
2016-05-19T03:54:15.717Z,10
2016-05-19T03:55:15.547Z,10
2016-05-19T03:56:15.707Z,10
2016-05-19T03:57:15.677Z,10
2016-05-19T03:58:15.665Z,10
2016-05-19T03:59:15.652Z,10
2016-05-19T04:00:15.467Z,15
2016-05-19T04:01:15.610Z,15
2016-05-19T04:02:15.144Z,15
2016-05-19T04:03:15.584Z,15
2016-05-19T04:04:15.587Z,15
2016-05-19T04:05:15.246Z,15
2016-05-19T04:06:15.561Z,15
2016-05-19T04:07:15.392Z,15
2016-05-19T04:08:16.364Z,15
2016-05-19T04:09:15.335Z,15
2016-05-19T04:10:15.479Z,15
2016-05-19T04:11:15.153Z,15
2016-05-19T04:12:15.437Z,15
2016-05-19T04:13:15.440Z,15
2016-05-19T04:14:15.270Z,15
2016-05-19T04:15:15.257Z,20
2016-05-19T04:16:15.385Z,20
2016-05-19T04:17:15.560Z,20
2016-05-19T04:18:15.359Z,20
2016-05-19T04:19:15.174Z,20
2016-05-19T04:20:15.333Z,20
2016-05-19T04:21:15.163Z,20
2016-05-19T04:22:15.291Z,20
2016-05-19T04:23:15.435Z,20
2016-05-19T04:24:15.266Z,25
2016-05-19T04:25:15.253Z,25
2016-05-19T04:26:15.084Z,25
2016-05-19T04:27:15.227Z,25
2016-05-19T04:28:15.199Z,25
2016-05-19T04:29:15.030Z,25
2016-05-19T04:30:15.173Z,30
2016-05-19T04:31:15.160Z,30
2016-05-19T04:32:15.007Z,30
2016-05-19T04:33:15.118Z,35
2016-05-19T04:34:15.121Z,35
2016-05-19T04:35:14.936Z,35
2016-05-19T04:36:15.079Z,35
2016-05-19T04:37:14.926Z,35
2016-05-19T04:38:14.928Z,35
2016-05-19T04:39:15.057Z,35
2016-05-19T04:40:15.012Z,35
2016-05-19T04:41:14.858Z,35
2016-05-19T04:42:15.003Z,35
2016-05-19T04:43:14.989Z,40
2016-05-19T04:44:14.820Z,40
2016-05-19T04:45:14.978Z,40
2016-05-19T04:46:14.934Z,40
2016-05-19T04:47:14.765Z,40
2016-05-19T04:48:14.909Z,40
2016-05-19T04:49:14.739Z,40
2016-05-19T04:50:14.727Z,40
2016-05-19T04:51:14.714Z,40
2016-05-19T04:52:14.857Z,40
2016-05-19T04:53:15.047Z,40
2016-05-19T04:54:14.815Z,40
2016-05-19T04:55:14.491Z,45
2016-05-19T04:56:14.790Z,45
2016-05-19T04:57:14.776Z,50
2016-05-19T04:58:14.592Z,55
2016-05-19T04:59:14.594Z,55
2016-05-19T05:00:14.582Z,50
2016-05-19T05:01:14.710Z,50
2016-05-19T05:02:14.540Z,55
2016-05-19T05:03:14.387Z,55
2016-05-19T05:04:14.670Z,55
2016-05-19T05:05:14.642Z,55
2016-05-19T05:06:14.332Z,55
2016-05-19T05:07:14.476Z,50
2016-05-19T05:08:14.712Z,50
2016-05-19T05:09:13.996Z,50
2016-05-19T05:10:14.593Z,50
2016-05-19T05:11:14.564Z,50
2016-05-19T05:12:14.395Z,50
2016-05-19T05:13:14.554Z,50
2016-05-19T05:14:14.526Z,55
2016-05-19T05:15:14.387Z,60
2016-05-19T05:16:14.344Z,60
2016-05-19T05:17:14.331Z,65
2016-05-19T05:18:14.474Z,65
2016-05-19T05:19:14.461Z,65
2016-05-19T05:20:14.448Z,60
2016-05-19T05:21:14.435Z,60
2016-05-19T05:22:14.250Z,65
2016-05-19T05:23:14.533Z,65
2016-05-19T05:24:15.286Z,60
2016-05-19T05:25:14.384Z,60
2016-05-19T05:26:14.355Z,60
2016-05-19T05:27:14.373Z,65
2016-05-19T05:28:14.329Z,70
2016-05-19T05:29:14.316Z,70
2016-05-19T05:30:14.303Z,75
2016-05-19T05:31:14.274Z,75
2016-05-19T05:32:14.277Z,75
2016-05-19T05:33:14.249Z,75
2016-05-19T05:34:14.251Z,75
2016-05-19T05:35:13.926Z,70
2016-05-19T05:36:14.085Z,70
2016-05-19T05:37:14.243Z,65
2016-05-19T05:38:14.215Z,60
2016-05-19T05:39:14.062Z,65
2016-05-19T05:40:14.002Z,60
2016-05-19T05:41:14.145Z,65
2016-05-19T05:42:13.976Z,65
2016-05-19T05:43:14.120Z,70
2016-05-19T05:44:13.638Z,70
2016-05-19T05:45:13.937Z,70
2016-05-19T05:46:14.081Z,70
2016-05-19T05:47:13.770Z,65
2016-05-19T05:48:13.898Z,65
2016-05-19T05:49:14.041Z,60
2016-05-19T05:50:13.717Z,55
2016-05-19T05:51:14.016Z,55
2016-05-19T05:52:13.847Z,60
2016-05-19T05:53:15.881Z,70
2016-05-19T05:54:13.992Z,75
2016-05-19T05:55:13.964Z,75
2016-05-19T05:56:13.952Z,75
2016-05-19T05:57:13.922Z,75
2016-05-19T05:58:13.941Z,80
2016-05-19T05:59:13.755Z,80
2016-05-19T06:00:13.883Z,80
2016-05-19T06:01:13.590Z,75
2016-05-19T06:02:13.561Z,75
2016-05-19T06:03:13.846Z,80
2016-05-19T06:04:13.832Z,95
2016-05-19T06:05:13.851Z,90
2016-05-19T06:06:13.807Z,85
2016-05-19T06:07:13.668Z,75
2016-05-19T06:08:14.765Z,60
2016-05-19T06:09:13.782Z,50
2016-05-19T06:10:13.770Z,45
2016-05-19T06:11:13.742Z,45
2016-05-19T06:12:13.728Z,45
2016-05-19T06:13:13.590Z,50
2016-05-19T06:14:13.562Z,50
2016-05-19T06:15:13.534Z,50
2016-05-19T06:16:13.521Z,50
2016-05-19T06:17:13.664Z,50
2016-05-19T06:18:13.667Z,50
2016-05-19T06:19:13.638Z,50
2016-05-19T06:20:13.484Z,55
2016-05-19T06:21:13.736Z,55
2016-05-19T06:22:13.600Z,65
2016-05-19T06:23:13.461Z,65
2016-05-19T06:24:13.573Z,75
2016-05-19T06:25:13.545Z,80
2016-05-19T06:26:13.548Z,85
2016-05-19T06:27:13.378Z,85
2016-05-19T06:28:13.380Z,90
2016-05-19T06:29:13.196Z,95
2016-05-19T06:30:13.480Z,105
2016-05-19T06:31:13.170Z,115
2016-05-19T06:32:13.486Z,125
2016-05-19T06:33:13.144Z,130
2016-05-19T06:34:13.288Z,130
2016-05-19T06:35:13.432Z,120
2016-05-19T06:36:13.418Z,110
2016-05-19T06:37:13.437Z,100
2016-05-19T06:38:13.673Z,100
2016-05-19T06:39:13.067Z,105
2016-05-19T06:40:13.382Z,110
2016-05-19T06:41:13.354Z,120
2016-05-19T06:42:13.340Z,120
2016-05-19T06:43:13.015Z,120
2016-05-19T06:44:13.315Z,110
2016-05-19T06:45:13.318Z,105
2016-05-19T06:46:13.289Z,105
2016-05-19T06:47:13.276Z,105
2016-05-19T06:48:13.279Z,110
2016-05-19T06:49:13.094Z,115
2016-05-19T06:50:13.283Z,115
2016-05-19T06:51:13.224Z,115
2016-05-19T06:52:13.211Z,120
2016-05-19T06:53:13.276Z,125
2016-05-19T06:54:13.279Z,125
2016-05-19T06:55:13.172Z,135
2016-05-19T06:56:13.175Z,145
2016-05-19T06:57:12.834Z,160
2016-05-19T06:58:12.994Z,170
2016-05-19T06:59:12.963Z,180
2016-05-19T07:00:12.827Z,170
2016-05-19T07:01:13.110Z,155
2016-05-19T07:02:12.941Z,145
2016-05-19T07:03:13.068Z,140
2016-05-19T07:04:13.071Z,140
2016-05-19T07:05:13.090Z,140
2016-05-19T07:06:13.061Z,140
2016-05-19T07:07:13.017Z,140
2016-05-19T07:08:13.504Z,130
2016-05-19T07:09:12.866Z,125
2016-05-19T07:10:12.978Z,125
2016-05-19T07:11:12.996Z,125
2016-05-19T07:12:12.968Z,120
2016-05-19T07:13:12.783Z,105
2016-05-19T07:14:12.942Z,110
2016-05-19T07:15:12.929Z,105
2016-05-19T07:16:12.900Z,105
2016-05-19T07:17:12.903Z,105
2016-05-19T07:18:12.890Z,120
2016-05-19T07:19:12.878Z,130
2016-05-19T07:20:12.567Z,140
2016-05-19T07:21:12.851Z,140
2016-05-19T07:22:12.839Z,140
2016-05-19T07:23:12.966Z,145
2016-05-19T07:24:12.656Z,165
2016-05-19T07:25:12.800Z,180
2016-05-19T07:26:12.631Z,200
2016-05-19T07:27:12.774Z,205
2016-05-19T07:28:12.792Z,215
2016-05-19T07:29:12.795Z,215
2016-05-19T07:30:12.595Z,220
2016-05-19T07:31:12.722Z,230
2016-05-19T07:32:12.725Z,250
2016-05-19T07:33:12.696Z,285
2016-05-19T07:34:12.386Z,295
2016-05-19T07:35:12.514Z,315
2016-05-19T07:36:12.517Z,300
2016-05-19T07:37:12.488Z,290
2016-05-19T07:38:12.976Z,290
2016-05-19T07:39:12.853Z,260
2016-05-19T07:40:12.606Z,255
2016-05-19T07:41:12.468Z,215
2016-05-19T07:42:12.439Z,185
2016-05-19T07:43:12.598Z,155
2016-05-19T07:44:12.429Z,160
2016-05-19T07:45:12.556Z,160
2016-05-19T07:46:12.404Z,155
2016-05-19T07:47:12.546Z,155
2016-05-19T07:48:12.533Z,145
2016-05-19T07:49:12.521Z,135
2016-05-19T07:50:12.352Z,120
2016-05-19T07:51:12.511Z,115
2016-05-19T07:52:12.342Z,115
2016-05-19T07:53:12.047Z,115
2016-05-19T07:54:12.300Z,115
2016-05-19T07:55:12.286Z,115
2016-05-19T07:56:12.289Z,110
2016-05-19T07:57:12.433Z,115
2016-05-19T07:58:12.420Z,120
2016-05-19T07:59:12.250Z,135
2016-05-19T08:00:12.253Z,145
2016-05-19T08:01:12.225Z,160
2016-05-19T08:02:12.211Z,165
2016-05-19T08:03:12.199Z,165
2016-05-19T08:04:12.357Z,175
2016-05-19T08:05:12.344Z,180
2016-05-19T08:06:12.332Z,185
2016-05-19T08:07:12.147Z,155
2016-05-19T08:08:12.432Z,145
2016-05-19T08:09:12.169Z,150
2016-05-19T08:10:12.265Z,160
2016-05-19T08:11:12.283Z,165
2016-05-19T08:12:12.270Z,170
2016-05-19T08:13:12.085Z,175
2016-05-19T08:14:12.229Z,170
2016-05-19T08:15:12.215Z,170
2016-05-19T08:16:12.218Z,160
2016-05-19T08:17:12.065Z,165
2016-05-19T08:18:12.037Z,165
2016-05-19T08:19:12.007Z,160
2016-05-19T08:20:12.151Z,135
2016-05-19T08:21:11.825Z,125
2016-05-19T08:22:12.125Z,115
2016-05-19T08:23:12.175Z,115
2016-05-19T08:24:12.317Z,115
2016-05-19T08:25:11.945Z,110
2016-05-19T08:26:12.088Z,110
2016-05-19T08:27:11.919Z,110
2016-05-19T08:28:12.063Z,110
2016-05-19T08:29:11.894Z,115
2016-05-19T08:30:12.053Z,115
2016-05-19T08:31:11.618Z,120
2016-05-19T08:32:12.011Z,135
2016-05-19T08:33:11.858Z,150
2016-05-19T08:34:11.688Z,170
2016-05-19T08:35:11.833Z,190
2016-05-19T08:36:12.007Z,205
2016-05-19T08:37:11.963Z,200
2016-05-19T08:38:11.949Z,205
2016-05-19T08:39:12.155Z,210
2016-05-19T08:40:11.923Z,220
2016-05-19T08:41:11.910Z,240
2016-05-19T08:42:11.929Z,275
2016-05-19T08:43:11.729Z,300
2016-05-19T08:44:11.888Z,315
2016-05-19T08:45:11.718Z,315
2016-05-19T08:46:11.690Z,315
2016-05-19T08:47:11.832Z,320
2016-05-19T08:48:11.835Z,325
2016-05-19T08:49:11.681Z,335
2016-05-19T08:50:11.794Z,340
2016-05-19T08:51:11.656Z,335
2016-05-19T08:52:11.628Z,330
2016-05-19T08:53:11.973Z,315
2016-05-19T08:54:12.742Z,300
2016-05-19T08:55:11.683Z,295
2016-05-19T08:56:11.811Z,295
2016-05-19T08:57:11.578Z,300
2016-05-19T08:58:11.722Z,310
2016-05-19T08:59:11.755Z,310
2016-05-19T09:00:11.555Z,325
2016-05-19T09:01:11.745Z,340
2016-05-19T09:02:11.514Z,325
2016-05-19T09:03:11.533Z,300
2016-05-19T09:04:11.660Z,270
2016-05-19T09:05:11.491Z,230
2016-05-19T09:06:11.634Z,235
2016-05-19T09:07:11.340Z,245
2016-05-19T09:08:11.607Z,245
2016-05-19T09:09:11.610Z,255
2016-05-19T09:10:11.598Z,265
2016-05-19T09:11:11.601Z,255
2016-05-19T09:12:11.571Z,235
2016-05-19T09:13:11.575Z,215
2016-05-19T09:14:11.390Z,200
2016-05-19T09:15:11.579Z,190
2016-05-19T09:16:11.521Z,155
2016-05-19T09:17:11.538Z,130
2016-05-19T09:18:11.495Z,125
2016-05-19T09:19:11.340Z,110
2016-05-19T09:20:11.485Z,115
2016-05-19T09:21:11.471Z,125
2016-05-19T09:22:11.317Z,125
2016-05-19T09:23:11.445Z,135
2016-05-19T09:24:11.464Z,145
2016-05-19T09:25:11.420Z,160
2016-05-19T09:26:11.312Z,170
2016-05-19T09:27:11.394Z,180
2016-05-19T09:28:11.396Z,195
2016-05-19T09:29:11.086Z,210
2016-05-19T09:30:11.402Z,220
2016-05-19T09:31:11.201Z,230
2016-05-19T09:32:11.361Z,235
2016-05-19T09:33:11.331Z,235
2016-05-19T09:34:11.334Z,235
2016-05-19T09:35:11.321Z,225
2016-05-19T09:36:11.308Z,190
2016-05-19T09:37:11.279Z,180
2016-05-19T09:38:11.267Z,185
2016-05-19T09:39:11.286Z,200
2016-05-19T09:40:11.272Z,225
2016-05-19T09:41:11.088Z,230
2016-05-19T09:42:10.918Z,225
2016-05-19T09:43:11.233Z,250
2016-05-19T09:44:11.205Z,270
2016-05-19T09:45:10.895Z,295
2016-05-19T09:46:11.038Z,325
2016-05-19T09:47:11.026Z,335
2016-05-19T09:48:11.013Z,355
2016-05-19T09:49:11.015Z,345
2016-05-19T09:50:11.143Z,330
2016-05-19T09:51:11.130Z,355
2016-05-19T09:52:11.117Z,385
2016-05-19T09:53:10.948Z,435
2016-05-19T09:54:11.748Z,525
2016-05-19T09:55:10.937Z,685
2016-05-19T09:56:11.081Z,660
2016-05-19T09:57:11.068Z,595
2016-05-19T09:58:10.914Z,455
2016-05-19T09:59:10.901Z,520
2016-05-19T10:00:10.904Z,535
2016-05-19T10:01:11.016Z,525
2016-05-19T10:02:11.034Z,510
2016-05-19T10:03:11.022Z,500
2016-05-19T10:04:11.025Z,480
2016-05-19T10:05:10.980Z,365
2016-05-19T10:06:10.983Z,270
2016-05-19T10:07:10.970Z,235
2016-05-19T10:08:10.958Z,230
2016-05-19T10:09:10.975Z,215
2016-05-19T10:10:10.963Z,210
2016-05-19T10:11:10.949Z,210
2016-05-19T10:12:10.921Z,215
2016-05-19T10:13:10.924Z,225
2016-05-19T10:14:10.911Z,235
2016-05-19T10:15:10.898Z,245
2016-05-19T10:16:10.901Z,285
2016-05-19T10:17:10.904Z,315
2016-05-19T10:18:10.874Z,340
2016-05-19T10:19:10.862Z,355
2016-05-19T10:20:10.865Z,370
2016-05-19T10:21:10.852Z,325
2016-05-19T10:22:10.526Z,255
2016-05-19T10:23:10.685Z,210
2016-05-19T10:24:10.640Z,200
2016-05-19T10:25:10.831Z,215
2016-05-19T10:26:10.803Z,240
2016-05-19T10:27:10.790Z,220
2016-05-19T10:28:10.839Z,200
2016-05-19T10:29:10.607Z,185
2016-05-19T10:30:10.751Z,195
2016-05-19T10:31:10.753Z,205
2016-05-19T10:32:10.600Z,210
2016-05-19T10:33:10.587Z,215
2016-05-19T10:34:10.731Z,215
2016-05-19T10:35:10.717Z,205
2016-05-19T10:36:10.720Z,180
2016-05-19T10:37:10.722Z,165
2016-05-19T10:38:10.678Z,145
2016-05-19T10:39:10.853Z,130
2016-05-19T10:40:10.512Z,125
2016-05-19T10:41:10.514Z,130
2016-05-19T10:42:10.642Z,135
2016-05-19T10:43:10.661Z,120
2016-05-19T10:44:10.616Z,120
2016-05-19T10:45:10.463Z,125
2016-05-19T10:46:10.622Z,145
2016-05-19T10:47:10.453Z,180
2016-05-19T10:48:10.424Z,220
2016-05-19T10:49:10.427Z,270
2016-05-19T10:50:10.585Z,375
2016-05-19T10:51:10.557Z,515
2016-05-19T10:52:10.388Z,870
2016-05-19T10:53:11.141Z,1720
2016-05-19T10:54:10.581Z,645
2016-05-19T10:55:10.521Z,660
2016-05-19T10:56:10.509Z,635
2016-05-19T10:57:10.495Z,525
2016-05-19T10:58:10.481Z,490
2016-05-19T10:59:10.485Z,645
2016-05-19T11:00:10.473Z,915
2016-05-19T11:01:10.459Z,1005
2016-05-19T11:02:10.446Z,1000
2016-05-19T11:03:10.277Z,1065
2016-05-19T11:04:10.280Z,600
2016-05-19T11:05:10.110Z,555
2016-05-19T11:06:10.425Z,600
2016-05-19T11:07:10.413Z,965
2016-05-19T11:08:10.259Z,805
2016-05-19T11:09:10.809Z,1880
2016-05-19T11:10:10.389Z,2140
2016-05-19T11:11:10.376Z,2160
2016-05-19T11:12:10.379Z,2095
2016-05-19T11:13:10.367Z,2080
2016-05-19T11:14:10.057Z,1875
2016-05-19T11:15:10.200Z,1840
2016-05-19T11:16:10.358Z,1875
2016-05-19T11:17:10.205Z,1065
2016-05-19T11:18:10.348Z,1160
2016-05-19T11:19:10.351Z,1755
2016-05-19T11:20:10.369Z,495
2016-05-19T11:21:10.357Z,450
2016-05-19T11:22:10.343Z,405
2016-05-19T11:23:10.190Z,370
2016-05-19T11:24:10.662Z,305
2016-05-19T11:25:10.321Z,265
2016-05-19T11:26:10.042Z,235
2016-05-19T11:27:10.326Z,215
2016-05-19T11:28:10.313Z,210
2016-05-19T11:29:10.035Z,210
2016-05-19T11:30:10.006Z,270
2016-05-19T11:31:10.306Z,325
2016-05-19T11:32:10.323Z,265
2016-05-19T11:33:10.342Z,260
2016-05-19T11:34:10.141Z,580
2016-05-19T11:35:10.300Z,305
2016-05-19T11:36:10.272Z,260
2016-05-19T11:37:10.275Z,225
2016-05-19T11:38:10.277Z,220
2016-05-19T11:39:09.999Z,210
2016-05-19T11:40:10.251Z,185
2016-05-19T11:41:10.238Z,165
2016-05-19T11:42:10.242Z,160
2016-05-19T11:43:10.244Z,170
2016-05-19T11:44:10.277Z,190
2016-05-19T11:45:10.218Z,210
2016-05-19T11:46:10.205Z,230
2016-05-19T11:47:10.246Z,250
2016-05-19T11:48:10.288Z,275
2016-05-19T11:49:10.190Z,285
2016-05-19T11:50:10.188Z,305
2016-05-19T11:51:10.386Z,335
2016-05-19T11:52:10.406Z,360
2016-05-19T11:53:10.251Z,425
2016-05-19T11:54:10.846Z,505
2016-05-19T11:55:10.426Z,605
2016-05-19T11:56:10.271Z,860
2016-05-19T11:57:10.405Z,610
2016-05-19T11:58:10.413Z,645
2016-05-19T11:59:10.311Z,675
2016-05-19T12:00:10.086Z,825
2016-05-19T12:01:10.438Z,1045
2016-05-19T12:02:09.958Z,1585
2016-05-19T12:03:10.415Z,1895
2016-05-19T12:04:10.388Z,1970
2016-05-19T12:05:10.393Z,2085
2016-05-19T12:06:10.242Z,1145
2016-05-19T12:07:10.386Z,1855
2016-05-19T12:08:10.077Z,835
2016-05-19T12:09:10.721Z,970
2016-05-19T12:10:10.224Z,1650
2016-05-19T12:11:10.368Z,695
2016-05-19T12:12:10.387Z,1360
2016-05-19T12:13:10.374Z,1140
2016-05-19T12:14:10.393Z,1615
2016-05-19T12:15:11.677Z,705
2016-05-19T12:16:10.369Z,1240
2016-05-19T12:17:10.371Z,1635
2016-05-19T12:18:10.358Z,810
2016-05-19T12:19:10.189Z,1220
2016-05-19T12:20:10.347Z,1495
2016-05-19T12:21:10.037Z,585
2016-05-19T12:22:10.196Z,505
2016-05-19T12:23:10.246Z,480
2016-05-19T12:24:10.405Z,440
2016-05-19T12:25:10.157Z,390
2016-05-19T12:26:10.176Z,360
2016-05-19T12:27:10.320Z,340
2016-05-19T12:28:10.323Z,325
2016-05-19T12:29:10.309Z,310
2016-05-19T12:30:10.015Z,290
2016-05-19T12:31:10.315Z,275
2016-05-19T12:32:10.302Z,265
2016-05-19T12:33:10.179Z,270
2016-05-19T12:34:10.292Z,275
2016-05-19T12:35:10.278Z,295
2016-05-19T12:36:10.297Z,330
2016-05-19T12:37:09.815Z,370
2016-05-19T12:38:10.271Z,440
2016-05-19T12:39:10.258Z,475
2016-05-19T12:40:10.464Z,430
2016-05-19T12:41:10.108Z,415
2016-05-19T12:42:09.954Z,390
2016-05-19T12:43:10.269Z,375
2016-05-19T12:44:10.256Z,370
2016-05-19T12:45:10.227Z,360
2016-05-19T12:46:10.230Z,350
2016-05-19T12:47:10.249Z,360
2016-05-19T12:48:10.266Z,620
2016-05-19T12:49:10.269Z,385
2016-05-19T12:50:10.225Z,340
2016-05-19T12:51:10.197Z,320
2016-05-19T12:52:10.058Z,310
2016-05-19T12:53:10.186Z,305
2016-05-19T12:54:10.486Z,330
2016-05-19T12:55:10.176Z,330
2016-05-19T12:56:10.007Z,315
2016-05-19T12:57:10.182Z,305
2016-05-19T12:58:09.856Z,295
2016-05-19T12:59:10.172Z,275
2016-05-19T13:00:10.018Z,260
2016-05-19T13:01:10.146Z,255
2016-05-19T13:02:10.148Z,255
2016-05-19T13:03:10.135Z,275
2016-05-19T13:04:09.981Z,295
2016-05-19T13:05:10.156Z,315
2016-05-19T13:06:10.112Z,340
2016-05-19T13:07:10.099Z,365
2016-05-19T13:08:10.118Z,375
2016-05-19T13:09:10.261Z,370
2016-05-19T13:10:10.092Z,350
2016-05-19T13:11:10.063Z,330
2016-05-19T13:12:09.784Z,325
2016-05-19T13:13:09.912Z,335
2016-05-19T13:14:10.056Z,370
2016-05-19T13:15:09.917Z,440
2016-05-19T13:16:10.060Z,565
2016-05-19T13:17:10.032Z,630
2016-05-19T13:18:09.895Z,1055
2016-05-19T13:19:09.725Z,790
2016-05-19T13:20:09.869Z,650
2016-05-19T13:21:10.027Z,640
2016-05-19T13:22:09.843Z,675
2016-05-19T13:23:09.908Z,750
2016-05-19T13:24:09.926Z,1555
2016-05-19T13:25:10.007Z,1655
2016-05-19T13:26:09.854Z,1700
2016-05-19T13:27:09.825Z,1400
2016-05-19T13:28:10.000Z,1595
2016-05-19T13:29:09.814Z,1725
2016-05-19T13:30:10.160Z,1665
2016-05-19T13:31:09.820Z,1625
2016-05-19T13:32:09.979Z,1555
2016-05-19T13:33:09.965Z,760
2016-05-19T13:34:09.968Z,1325
2016-05-19T13:35:09.956Z,515
2016-05-19T13:36:09.974Z,460
2016-05-19T13:37:09.945Z,495
2016-05-19T13:38:09.776Z,520
2016-05-19T13:39:10.201Z,575
2016-05-19T13:40:09.969Z,690
2016-05-19T13:41:09.800Z,515
2016-05-19T13:42:09.943Z,500
2016-05-19T13:43:09.946Z,525
2016-05-19T13:44:09.948Z,580
2016-05-19T13:45:09.764Z,1080
2016-05-19T13:46:09.767Z,820
2016-05-19T13:47:09.769Z,695
2016-05-19T13:48:10.194Z,555
2016-05-19T13:49:09.900Z,560
2016-05-19T13:50:09.949Z,1120
2016-05-19T13:51:09.936Z,920
2016-05-19T13:52:09.924Z,1255
2016-05-19T13:53:09.910Z,995
2016-05-19T13:54:09.944Z,650
2016-05-19T13:55:09.916Z,775
2016-05-19T13:56:09.887Z,445
2016-05-19T13:57:09.890Z,375
2016-05-19T13:58:09.752Z,365
2016-05-19T13:59:09.723Z,420
2016-05-19T14:00:09.741Z,735
2016-05-19T14:01:09.868Z,730
2016-05-19T14:02:09.732Z,540
2016-05-19T14:03:09.874Z,760
2016-05-19T14:04:09.721Z,410
2016-05-19T14:05:09.896Z,375